• Join FlightAware (Why Join?)
  • Login
  • US Flag 
08:44AM EST


 

Airport Tracker/Info


-or-


 

Live Flight TrackerFlight Track Log ✈ SWA1969 ✈ 06-Jul-2013 ✈ KSTL - KFLL

Flight Track Log - Related Links

Times and Time Zones

All times are in EDT time to prevent confusion due to time zone crossing. See the SWA1969 flight status page for this flight to view local times or setup timezone preferences in your user account.

Time Position Orientation Groundspeed Altitude Reporting Facility
EDT Latitude Longitude Course Direction KTS MPH feet Rate Location/Type
10:46AM 38.7167 -90.2833 134° Southeast 212 244 2,600  Level Gateway (St. Louis) TRACON
10:46AM 38.7167 -90.2833 134° Southeast 212 244 2,600 2,400 Level Gateway (St. Louis) TRACON
10:46AM 38.6814 -90.2433 138° Southeast 223 257 4,400 2,400 Climbing Kansas City Center
10:46AM 38.6814 -90.2433 138° Southeast 223 257 4,400 2,100 Level Kansas City Center
10:47AM 38.6392 -90.1775 129° Southeast 262 302 6,600 2,100 Climbing Kansas City Center
10:47AM 38.6392 -90.1775 129° Southeast 262 302 6,600 3,480 Level Kansas City Center
10:48AM 38.5769 -90.0825 130° Southeast 285 328 10,200 3,480 Climbing Kansas City Center
10:48AM 38.5769 -90.0825 130° Southeast 285 328 10,200 1,200 Level Kansas City Center
10:49AM 38.5231 -89.9994 130° Southeast 320 368 11,500 1,200 Climbing Kansas City Center
10:49AM 38.5231 -89.9994 130° Southeast 320 368 11,500 2,580 Level Kansas City Center
10:51AM 38.1487 -89.7940 134° Southeast  Level Estimated
10:51AM 38.1487 -89.7940 134° Southeast  Level Estimated
10:51AM 38.4578 -89.9019 131° Southeast 355 409 14,200  Level Kansas City Center
10:51AM 38.4578 -89.9019 131° Southeast 355 409 14,200 2,160 Level Kansas City Center
10:52AM 38.3922 -89.8014 130° Southeast 365 420 16,400 2,160 Climbing Kansas City Center
10:52AM 38.3922 -89.8014 130° Southeast 365 420 16,400 2,460 Level Kansas City Center
10:53AM 38.3133 -89.6803 130° Southeast 377 434 19,000 2,460 Climbing Kansas City Center
10:53AM 38.3133 -89.6803 130° Southeast 377 434 19,000 1,620 Level Kansas City Center
10:54AM 38.2414 -89.5797 132° Southeast 383 441 20,700 1,620 Climbing Kansas City Center
10:54AM 38.2414 -89.5797 132° Southeast 383 441 20,700 1,620 Level Kansas City Center
10:55AM 38.1614 -89.4644 131° Southeast 402 463 22,400 1,620 Climbing Kansas City Center
10:55AM 38.1614 -89.4644 131° Southeast 402 463 22,400 1,860 Level Kansas City Center
10:56AM 38.0861 -89.3567 132° Southeast 409 471 24,300 1,860 Climbing Kansas City Center
10:56AM 38.0861 -89.3567 132° Southeast 409 471 24,300 1,620 Level Kansas City Center
10:57AM 38.0122 -89.2508 132° Southeast 404 465 26,000 1,620 Climbing Kansas City Center
10:57AM 38.0122 -89.2508 132° Southeast 404 465 26,000 1,620 Level Kansas City Center
10:58AM 37.9314 -89.1367 132° Southeast 406 467 27,700 1,620 Climbing Kansas City Center
10:58AM 37.9314 -89.1367 132° Southeast 406 467 27,700 2,100 Level Kansas City Center
10:59AM 37.8689 -89.0486 132° Southeast 382 440 29,900 2,100 Climbing Kansas City Center
10:59AM 37.8689 -89.0486 132° Southeast 382 440 29,900 1,140 Level Kansas City Center
11:00AM 37.7864 -88.9294 131° Southeast 377 434 31,100 1,140 Climbing Kansas City Center
11:00AM 37.7864 -88.9294 131° Southeast 377 434 31,100 1,080 Level Kansas City Center
11:01AM 37.7183 -88.8342 132° Southeast 372 428 32,200 1,080 Climbing Kansas City Center
11:01AM 37.7183 -88.8342 132° Southeast 372 428 32,200 660 Level Kansas City Center
11:02AM 37.6486 -88.7375 132° Southeast 370 426 32,900 660 Climbing Kansas City Center
11:02AM 37.6486 -88.7375 132° Southeast 370 426 32,900 540 Level Kansas City Center
11:03AM 37.5767 -88.6347 131° Southeast 375 432 33,500 540 Climbing Kansas City Center
11:03AM 37.5767 -88.6347 131° Southeast 375 432 33,500 720 Level Kansas City Center
11:04AM 37.5336 -88.5761 133° Southeast 382 440 34,000 720 Climbing Memphis Center
11:04AM 37.5336 -88.5761 133° Southeast 382 440 34,000 960 Level Memphis Center
11:05AM 37.4614 -88.4758 132° Southeast 382 440 35,000 960 Climbing Memphis Center
11:05AM 37.4614 -88.4758 132° Southeast 382 440 35,000  Level Memphis Center
11:06AM 37.3931 -88.3756 131° Southeast 382 440 35,000  Level Memphis Center
11:06AM 37.3931 -88.3756 131° Southeast 382 440 35,000  Level Memphis Center
11:07AM 37.3206 -88.2783 133° Southeast 382 440 35,000  Level Memphis Center
11:07AM 37.3206 -88.2783 133° Southeast 382 440 35,000  Level Memphis Center
11:08AM 37.2503 -88.1836 133° Southeast 382 440 35,000  Level Memphis Center
11:08AM 37.2503 -88.1836 133° Southeast 382 440 35,000  Level Memphis Center
11:09AM 37.1797 -88.0842 132° Southeast 382 440 35,000  Level Memphis Center
11:09AM 37.1797 -88.0842 132° Southeast 382 440 35,000  Level Memphis Center
11:10AM 37.1072 -87.9875 133° Southeast 382 440 35,000  Level Memphis Center
11:10AM 37.1072 -87.9875 133° Southeast 382 440 35,000  Level Memphis Center
11:11AM 37.0386 -87.8906 132° Southeast 382 440 35,000  Level Memphis Center
11:11AM 37.0386 -87.8906 132° Southeast 382 440 35,000  Level Memphis Center
11:12AM 36.9658 -87.7917 133° Southeast 387 445 35,000  Level Memphis Center
11:12AM 36.9658 -87.7917 133° Southeast 387 445 35,000  Level Memphis Center
11:13AM 36.8950 -87.6953 133° Southeast 382 440 35,000  Level Memphis Center
11:13AM 36.8950 -87.6953 133° Southeast 382 440 35,000  Level Memphis Center
11:14AM 36.8178 -87.5942 134° Southeast 382 440 35,000  Level Memphis Center
11:14AM 36.8178 -87.5942 134° Southeast 382 440 35,000  Level Memphis Center
11:15AM 36.7447 -87.4958 133° Southeast 382 440 35,000  Level Memphis Center
11:15AM 36.7447 -87.4958 133° Southeast 382 440 35,000  Level Memphis Center
11:16AM 36.6736 -87.4000 133° Southeast 382 440 35,000  Level Memphis Center
11:16AM 36.6736 -87.4000 133° Southeast 382 440 35,000  Level Memphis Center
11:17AM 36.6003 -87.3019 133° Southeast 382 440 35,000  Level Memphis Center
11:17AM 36.6003 -87.3019 133° Southeast 382 440 35,000  Level Memphis Center
11:18AM 36.5292 -87.2064 133° Southeast 382 440 35,000  Level Memphis Center
11:18AM 36.5292 -87.2064 133° Southeast 382 440 35,000  Level Memphis Center
11:19AM 36.4558 -87.1086 133° Southeast 382 440 35,000  Level Memphis Center
11:19AM 36.4558 -87.1086 133° Southeast 382 440 35,000  Level Memphis Center
11:20AM 36.3847 -87.0186 134° Southeast 382 440 35,000  Level Memphis Center
11:20AM 36.3847 -87.0186 134° Southeast 382 440 35,000  Level Memphis Center
11:26AM 35.8753 -86.5578 144° Southeast 371 427 35,000  Level Memphis Center
11:27AM 35.7797 -86.5086 157° South 377 434 35,000  Level Memphis Center
11:29AM 35.5744 -86.4081 158° South 394 453 35,000  Level Atlanta Center
11:30AM 35.4753 -86.3594 158° South 385 443 35,000  Level Atlanta Center
11:31AM 35.3739 -86.3108 159° South 391 450 35,000  Level Atlanta Center
11:32AM 35.2706 -86.2594 158° South 391 450 35,000  Level Atlanta Center
11:33AM 35.1672 -86.2111 159° South 398 458 35,000  Level Atlanta Center
11:34AM 35.0636 -86.1603 158° South 398 458 35,000  Level Atlanta Center
11:35AM 34.9706 -86.1122 157° South 398 458 35,000  Level Atlanta Center
11:36AM 34.8669 -86.0642 159° South 398 458 35,000  Level Atlanta Center
11:37AM 34.7614 -86.0133 158° South 404 465 35,000  Level Atlanta Center
11:38AM 34.6558 -85.9631 159° South 410 472 35,000  Level Atlanta Center
11:39AM 34.5481 -85.9100 158° South 410 472 35,000  Level Atlanta Center
11:40AM 34.4444 -85.8625 159° South 410 472 35,000  Level Atlanta Center
11:41AM 34.3306 -85.8072 158° South 405 466 35,000  Level Atlanta Center
11:42AM 34.2247 -85.7597 160° South 410 472 35,000  Level Atlanta Center
11:43AM 34.1231 -85.7075 157° South 410 472 35,000  Level Atlanta Center
11:44AM 34.0153 -85.6578 159° South 410 472 35,000  Level Atlanta Center
11:45AM 33.9117 -85.6083 158° South 410 472 35,000  Level Atlanta Center
11:46AM 33.8058 -85.5614 160° South 410 472 35,000  Level Atlanta Center
11:47AM 33.7000 -85.5119 159° South 410 472 35,000  Level Atlanta Center
11:48AM 33.5939 -85.4628 159° South 410 472 35,000  Level Atlanta Center
11:49AM 33.4861 -85.4161 160° South 410 472 35,000  Level Atlanta Center
11:50AM 33.3800 -85.3722 161° South 410 472 35,000  Level Atlanta Center
11:51AM 33.2803 -85.3258 159° South 410 472 35,000  Level Atlanta Center
11:52AM 33.1744 -85.2822 161° South 410 472 35,000  Level Atlanta Center
11:53AM 33.0642 -85.2336 160° South 410 472 35,000  Level Atlanta Center
11:54AM 32.9478 -85.1775 158° South 410 472 35,000  Level Atlanta Center
11:55AM 32.8458 -85.1417 164° South 415 478 35,000  Level Atlanta Center
11:56AM 32.7275 -85.0833 157° South 415 478 35,000  Level Atlanta Center
11:57AM 32.6214 -85.0400 161° South 419 482 35,000  Level Atlanta Center
11:58AM 32.5089 -84.9919 160° South 426 490 35,000  Level Atlanta Center
11:59AM 32.3944 -84.9467 162° South 431 496 35,000  Level Atlanta Center
12:00PM 32.2864 -84.8989 160° South 426 490 35,000  Level Atlanta Center
12:01PM 32.1739 -84.8583 163° South 421 484 35,000  Level Atlanta Center
12:02PM 32.0614 -84.8083 159° South 421 484 35,000  Level Atlanta Center
12:03PM 31.9511 -84.7633 161° South 421 484 35,000  Level Atlanta Center
12:05PM 31.7406 -84.6758 161° South 418 481 35,000  Level Jacksonville Center
12:06PM 31.6139 -84.6222 160° South 431 496 35,000  Level Jacksonville Center
12:07PM 31.5019 -84.5764 161° South 431 496 35,000  Level Jacksonville Center
12:08PM 31.3942 -84.5136 154° Southeast 431 496 35,000  Level Jacksonville Center
12:09PM 31.2883 -84.4483 152° Southeast 431 496 35,000  Level Jacksonville Center
12:10PM 31.1806 -84.3836 153° Southeast 431 496 35,000  Level Jacksonville Center
12:11PM 31.0728 -84.3189 153° Southeast 436 502 35,000  Level Jacksonville Center
12:12PM 30.9628 -84.2517 152° Southeast 436 502 35,000  Level Jacksonville Center
12:13PM 30.8550 -84.1897 154° Southeast 441 507 35,000  Level Jacksonville Center
12:14PM 30.7472 -84.1206 151° Southeast 441 507 35,000  Level Jacksonville Center
12:15PM 30.6369 -84.0539 153° Southeast 447 514 35,000  Level Jacksonville Center
12:16PM 30.5394 -83.9972 153° Southeast 447 514 35,000  Level Jacksonville Center
12:17PM 30.4292 -83.9333 153° Southeast 447 514 35,000  Level Jacksonville Center
12:18PM 30.3192 -83.8672 153° Southeast 447 514 35,000  Level Jacksonville Center
12:19PM 30.2089 -83.8036 154° Southeast 447 514 35,000  Level Jacksonville Center
12:20PM 30.0967 -83.7378 153° Southeast 447 514 35,000  Level Jacksonville Center
12:21PM 29.9844 -83.6719 153° Southeast 447 514 35,000  Level Jacksonville Center
12:22PM 29.8719 -83.6064 153° Southeast 447 514 35,000  Level Jacksonville Center
12:23PM 29.7597 -83.5433 154° Southeast 447 514 35,000  Level Jacksonville Center
12:24PM 29.6450 -83.4756 153° Southeast 447 514 35,000  Level Jacksonville Center
12:25PM 29.5306 -83.4106 154° Southeast 447 514 35,000  Level Jacksonville Center
12:26PM 29.4056 -83.3358 152° Southeast 447 514 35,000  Level Jacksonville Center
12:27PM 29.2931 -83.2711 153° Southeast 447 514 35,000  Level Jacksonville Center
12:28PM 29.1764 -83.2042 153° Southeast 447 514 35,000  Level Jacksonville Center
12:29PM 29.0617 -83.1397 154° Southeast 447 514 35,000  Level Jacksonville Center
12:30PM 28.9492 -83.0728 152° Southeast 447 514 35,000  Level Jacksonville Center
12:31PM 28.8344 -83.0086 154° Southeast 447 514 35,000  Level Jacksonville Center
12:32PM 28.7197 -82.9422 153° Southeast 452 520 35,000  Level Jacksonville Center
12:33PM 28.6047 -82.8783 154° Southeast 452 520 35,000  Level Jacksonville Center
12:34PM 28.4881 -82.8122 154° Southeast 457 526 35,000  Level Jacksonville Center
12:36PM 28.2086 -82.6561 154° Southeast 466 536 35,000  Level Miami Center
12:37PM 28.1047 -82.5944 152° Southeast 466 536 35,000  Level Miami Center
12:38PM 27.9906 -82.5300 154° Southeast 461 531 35,000  Level Miami Center
12:39PM 27.8672 -82.4792 160° South 461 531 35,000  Level Miami Center
12:40PM 27.7378 -82.4328 162° South 456 525 35,000  Level Miami Center
12:41PM 27.6328 -82.3925 161° South 451 519 35,000  Level Miami Center
12:42PM 27.5133 -82.3494 162° South 451 519 35,000  Level Miami Center
12:43PM 27.3858 -82.3036 162° South 451 519 35,000  Level Miami Center
12:44PM 27.2706 -82.2608 162° South 446 513 35,000  Level Miami Center
12:45PM 27.1572 -82.2206 162° South 433 498 35,000  Level Miami Center
12:46PM 27.0542 -82.1831 162° South 433 498 35,000 -960 Level Miami Center
12:47PM 26.9456 -82.1292 156° South 433 498 33,100 -1,500 Descending Miami Center
12:48PM 26.8739 -82.0331 130° Southeast 416 479 32,100 -1,500 Descending Miami Center
12:49PM 26.8025 -81.9275 127° Southeast 409 471 30,200 -2,100 Descending Miami Center
12:50PM 26.7325 -81.8383 131° Southeast 399 459 28,000 -2,160 Descending Miami Center
12:51PM 26.6647 -81.7450 129° Southeast 393 452 25,900 -2,220 Descending Miami Center
12:52PM 26.5972 -81.6444 127° Southeast 380 437 23,600 -2,100 Descending Miami Center
12:53PM 26.5350 -81.5608 130° Southeast 361 415 21,700 -1,800 Descending Miami Center
12:54PM 26.4811 -81.4867 129° Southeast 351 404 20,000 -1,860 Descending Miami Center
12:55PM 26.4211 -81.4008 128° Southeast 329 379 18,000 -1,800 Descending Miami Center
12:56PM 26.3889 -81.3650 135° Southeast 317 365 17,200 -1,740 Descending Miami Center
12:56PM 26.3469 -81.3053 128° Southeast 312 359 15,700 -1,980 Descending Miami Center
12:57PM 26.3131 -81.2531 126° Southeast 310 357 14,400 -1,980 Descending Miami Center
12:58PM 26.2569 -81.1747 129° Southeast 316 364 12,500 -1,860 Descending Miami Center
12:59PM 26.2028 -81.0986 128° Southeast 316 364 10,700 -1,440 Descending Miami Center
01:00PM 26.1583 -81.0414 131° Southeast 316 364 9,700 -1,320 Descending Miami Center
01:01PM 26.1147 -80.9614 121° Southeast 304 350 8,100 -1,500 Descending Miami Center
01:02PM 26.1086 -80.8778 95° East 274 315 6,700 -1,500 Descending Miami Center
01:03PM 26.1025 -80.7989 95° East 260 299 5,200 -900 Descending Miami Center
01:04PM 26.0983 -80.7178 93° East 255 293 5,000 -120 Descending Miami Center
01:05PM 26.0922 -80.6322 95° East 255 293 5,000  Level Miami Center
01:05PM 26.0892 -80.5928 95° East 252 290 5,000 -540 Level Miami Center
01:07PM 26.0844 -80.5256 94° East 212 244 4,200 -480 Descending Miami Center
01:07PM 26.0797 -80.4653 95° East 208 239 4,100 -180 Descending Miami Center
01:08PM 26.0772 -80.3981 92° East 210 242 3,900 -600 Descending Miami Center
01:09PM 26.0767 -80.3356 91° East 204 235 3,000 -960 Descending Miami Center
01:11PM 26.0739 -80.2708 93° East 181 208 1,900 -900 Descending Miami Center
01:12PM 26.0750 -80.2244 88° East 137 158 1,100 -840 Descending Miami Center
01:13PM 26.0739 -80.1806 92° East 136 157 300 -840 Descending Miami Center
01:15PM 26.0667 -80.1500 180° South  Level FlightAware Approximate